sensor_id;sensor_type;location;lat;lon;timestamp;pressure;altitude;pressure_sealevel;temperature;humidity
12781;BME280;6454;43.304;24.344;2023-03-11T00:01:18;98349.06;;;12.65;100.00
12781;BME280;6454;43.304;24.344;2023-03-11T00:03:45;98347.72;;;12.59;100.00
12781;BME280;6454;43.304;24.344;2023-03-11T00:06:12;98350.00;;;12.57;100.00
12781;BME280;6454;43.304;24.344;2023-03-11T00:08:41;98338.88;;;12.62;100.00
12781;BME280;6454;43.304;24.344;2023-03-11T00:11:29;98339.06;;;12.69;100.00
12781;BME280;6454;43.304;24.344;2023-03-11T00:13:56;98332.78;;;12.53;100.00
12781;BME280;6454;43.304;24.344;2023-03-11T00:16:23;98329.84;;;12.46;100.00
12781;BME280;6454;43.304;24.344;2023-03-11T00:18:50;98317.59;;;12.52;100.00
12781;BME280;6454;43.304;24.344;2023-03-11T00:21:18;98315.53;;;12.49;100.00
12781;BME280;6454;43.304;24.344;2023-03-11T00:23:48;98316.94;;;12.43;100.00
12781;BME280;6454;43.304;24.344;2023-03-11T00:26:16;98314.88;;;12.52;100.00
12781;BME280;6454;43.304;24.344;2023-03-11T00:28:43;98319.38;;;12.60;100.00
12781;BME280;6454;43.304;24.344;2023-03-11T00:31:11;98310.88;;;12.62;100.00
12781;BME280;6454;43.304;24.344;2023-03-11T00:33:38;98313.94;;;12.60;100.00
12781;BME280;6454;43.304;24.344;2023-03-11T00:36:06;98309.78;;;12.51;100.00
12781;BME280;6454;43.304;24.344;2023-03-11T00:38:33;98291.19;;;12.53;100.00
12781;BME280;6454;43.304;24.344;2023-03-11T00:41:01;98291.06;;;12.49;100.00
12781;BME280;6454;43.304;24.344;2023-03-11T00:43:28;98295.28;;;12.47;100.00
12781;BME280;6454;43.304;24.344;2023-03-11T00:45:55;98258.72;;;12.32;100.00
12781;BME280;6454;43.304;24.344;2023-03-11T00:48:22;98284.28;;;12.55;100.00
12781;BME280;6454;43.304;24.344;2023-03-11T00:50:49;98285.97;;;12.60;100.00
12781;BME280;6454;43.304;24.344;2023-03-11T00:53:16;98275.88;;;12.60;100.00
12781;BME280;6454;43.304;24.344;2023-03-11T00:55:43;98277.34;;;12.58;100.00
12781;BME280;6454;43.304;24.344;2023-03-11T00:58:11;98281.75;;;12.62;100.00
12781;BME280;6454;43.304;24.344;2023-03-11T01:00:38;98296.28;;;12.66;100.00
12781;BME280;6454;43.304;24.344;2023-03-11T01:03:06;98286.16;;;12.67;100.00
12781;BME280;6454;43.304;24.344;2023-03-11T01:05:33;98292.63;;;12.62;100.00
12781;BME280;6454;43.304;24.344;2023-03-11T01:08:01;98290.16;;;12.57;100.00
12781;BME280;6454;43.304;24.344;2023-03-11T01:10:29;98262.63;;;12.47;100.00
12781;BME280;6454;43.304;24.344;2023-03-11T01:12:57;98280.50;;;12.60;100.00
12781;BME280;6454;43.304;24.344;2023-03-11T01:15:27;98267.72;;;12.60;100.00
12781;BME280;6454;43.304;24.344;2023-03-11T01:17:55;98267.97;;;12.55;100.00
12781;BME280;6454;43.304;24.344;2023-03-11T01:20:22;98263.97;;;12.65;100.00
12781;BME280;6454;43.304;24.344;2023-03-11T01:22:49;98233.22;;;12.37;100.00
12781;BME280;6454;43.304;24.344;2023-03-11T01:25:18;98283.22;;;12.60;100.00
12781;BME280;6454;43.304;24.344;2023-03-11T01:27:45;98284.31;;;12.43;100.00
12781;BME280;6454;43.304;24.344;2023-03-11T01:30:14;98280.91;;;12.46;100.00
12781;BME280;6454;43.304;24.344;2023-03-11T01:32:43;98285.53;;;12.46;100.00
12781;BME280;6454;43.304;24.344;2023-03-11T01:35:11;98278.06;;;12.43;100.00
12781;BME280;6454;43.304;24.344;2023-03-11T01:37:39;98287.34;;;12.42;100.00
12781;BME280;6454;43.304;24.344;2023-03-11T01:40:08;98287.13;;;12.47;100.00
12781;BME280;6454;43.304;24.344;2023-03-11T01:42:38;98287.22;;;12.50;100.00
12781;BME280;6454;43.304;24.344;2023-03-11T01:45:28;98285.88;;;12.44;100.00
12781;BME280;6454;43.304;24.344;2023-03-11T01:47:58;98277.72;;;12.44;100.00
12781;BME280;6454;43.304;24.344;2023-03-11T01:50:26;98286.09;;;12.51;100.00
12781;BME280;6454;43.304;24.344;2023-03-11T01:52:57;98268.44;;;12.45;100.00
12781;BME280;6454;43.304;24.344;2023-03-11T01:55:24;98274.66;;;12.46;100.00
12781;BME280;6454;43.304;24.344;2023-03-11T01:57:52;98281.59;;;12.43;100.00
12781;BME280;6454;43.304;24.344;2023-03-11T02:00:20;98276.72;;;12.37;100.00
12781;BME280;6454;43.304;24.344;2023-03-11T02:02:50;98278.63;;;12.48;100.00
12781;BME280;6454;43.304;24.344;2023-03-11T02:05:20;98282.47;;;12.47;100.00
12781;BME280;6454;43.304;24.344;2023-03-11T02:07:48;98288.84;;;12.51;100.00
12781;BME280;6454;43.304;24.344;2023-03-11T02:10:16;98293.59;;;12.42;100.00
12781;BME280;6454;43.304;24.344;2023-03-11T02:12:44;98285.75;;;12.53;100.00
12781;BME280;6454;43.304;24.344;2023-03-11T02:15:12;98283.03;;;12.53;100.00
12781;BME280;6454;43.304;24.344;2023-03-11T02:17:40;98278.97;;;12.47;100.00
12781;BME280;6454;43.304;24.344;2023-03-11T02:20:15;98284.88;;;12.49;100.00
12781;BME280;6454;43.304;24.344;2023-03-11T02:22:48;98269.22;;;12.46;100.00
12781;BME280;6454;43.304;24.344;2023-03-11T02:25:21;98260.84;;;12.51;100.00
12781;BME280;6454;43.304;24.344;2023-03-11T02:27:54;98245.69;;;12.38;100.00
12781;BME280;6454;43.304;24.344;2023-03-11T02:30:22;98267.84;;;12.52;100.00
12781;BME280;6454;43.304;24.344;2023-03-11T02:32:52;98260.84;;;12.51;100.00
12781;BME280;6454;43.304;24.344;2023-03-11T02:35:20;98259.81;;;12.55;100.00
12781;BME280;6454;43.304;24.344;2023-03-11T02:37:50;98254.34;;;12.55;100.00
12781;BME280;6454;43.304;24.344;2023-03-11T02:40:51;98237.28;;;12.43;100.00
12781;BME280;6454;43.304;24.344;2023-03-11T02:43:26;98232.22;;;12.41;100.00
12781;BME280;6454;43.304;24.344;2023-03-11T02:45:55;98236.69;;;12.49;100.00
12781;BME280;6454;43.304;24.344;2023-03-11T02:48:24;98235.22;;;12.52;100.00
12781;BME280;6454;43.304;24.344;2023-03-11T02:50:52;98232.41;;;12.48;100.00
12781;BME280;6454;43.304;24.344;2023-03-11T02:53:19;98241.50;;;12.40;100.00
12781;BME280;6454;43.304;24.344;2023-03-11T02:55:46;98241.72;;;12.35;100.00
12781;BME280;6454;43.304;24.344;2023-03-11T02:58:13;98239.44;;;12.37;100.00
12781;BME280;6454;43.304;24.344;2023-03-11T03:00:41;98245.13;;;12.32;100.00
12781;BME280;6454;43.304;24.344;2023-03-11T03:03:08;98241.31;;;12.21;100.00
12781;BME280;6454;43.304;24.344;2023-03-11T03:05:35;98243.00;;;12.25;100.00
12781;BME280;6454;43.304;24.344;2023-03-11T03:08:02;98238.44;;;12.29;100.00
12781;BME280;6454;43.304;24.344;2023-03-11T03:10:29;98249.19;;;12.38;100.00
12781;BME280;6454;43.304;24.344;2023-03-11T03:12:56;98254.88;;;12.33;100.00
12781;BME280;6454;43.304;24.344;2023-03-11T03:15:23;98244.47;;;12.23;100.00
12781;BME280;6454;43.304;24.344;2023-03-11T03:17:52;98254.44;;;12.31;100.00
12781;BME280;6454;43.304;24.344;2023-03-11T03:20:19;98242.41;;;12.32;100.00
12781;BME280;6454;43.304;24.344;2023-03-11T03:22:47;98243.13;;;12.17;100.00
12781;BME280;6454;43.304;24.344;2023-03-11T03:25:14;98249.22;;;12.26;100.00
12781;BME280;6454;43.304;24.344;2023-03-11T03:27:41;98245.50;;;12.18;100.00
12781;BME280;6454;43.304;24.344;2023-03-11T03:30:10;98249.50;;;12.09;100.00
12781;BME280;6454;43.304;24.344;2023-03-11T03:32:37;98245.78;;;12.01;100.00
12781;BME280;6454;43.304;24.344;2023-03-11T03:35:07;98246.09;;;12.00;100.00
12781;BME280;6454;43.304;24.344;2023-03-11T03:37:35;98258.56;;;12.01;100.00
12781;BME280;6454;43.304;24.344;2023-03-11T03:40:04;98215.06;;;11.52;100.00
12781;BME280;6454;43.304;24.344;2023-03-11T03:42:33;98264.91;;;11.81;100.00
12781;BME280;6454;43.304;24.344;2023-03-11T03:45:01;98264.78;;;11.77;100.00
12781;BME280;6454;43.304;24.344;2023-03-11T03:47:28;98261.22;;;11.64;100.00
12781;BME280;6454;43.304;24.344;2023-03-11T03:49:55;98258.44;;;11.73;100.00
12781;BME280;6454;43.304;24.344;2023-03-11T03:52:23;98259.69;;;11.76;100.00
12781;BME280;6454;43.304;24.344;2023-03-11T03:54:50;98245.38;;;11.54;100.00
12781;BME280;6454;43.304;24.344;2023-03-11T03:57:17;98274.50;;;11.66;100.00
12781;BME280;6454;43.304;24.344;2023-03-11T03:59:44;98284.59;;;11.78;100.00
12781;BME280;6454;43.304;24.344;2023-03-11T04:02:11;98288.19;;;11.82;100.00
12781;BME280;6454;43.304;24.344;2023-03-11T04:04:38;98295.69;;;11.85;100.00
12781;BME280;6454;43.304;24.344;2023-03-11T04:07:05;98295.22;;;11.83;100.00
12781;BME280;6454;43.304;24.344;2023-03-11T04:09:34;98296.25;;;11.78;100.00
12781;BME280;6454;43.304;24.344;2023-03-11T04:12:01;98262.38;;;11.63;100.00
12781;BME280;6454;43.304;24.344;2023-03-11T04:14:28;98304.53;;;11.94;100.00
12781;BME280;6454;43.304;24.344;2023-03-11T04:16:54;98292.41;;;11.91;100.00
12781;BME280;6454;43.304;24.344;2023-03-11T04:19:22;98304.31;;;11.99;100.00
12781;BME280;6454;43.304;24.344;2023-03-11T04:21:49;98311.31;;;12.00;100.00
12781;BME280;6454;43.304;24.344;2023-03-11T04:24:16;98314.72;;;12.09;100.00
12781;BME280;6454;43.304;24.344;2023-03-11T04:26:44;98319.00;;;12.10;100.00
12781;BME280;6454;43.304;24.344;2023-03-11T04:29:11;98316.41;;;12.01;100.00
12781;BME280;6454;43.304;24.344;2023-03-11T04:31:38;98316.75;;;12.00;100.00
12781;BME280;6454;43.304;24.344;2023-03-11T04:34:05;98309.16;;;12.05;100.00
12781;BME280;6454;43.304;24.344;2023-03-11T04:36:32;98310.16;;;12.13;100.00
12781;BME280;6454;43.304;24.344;2023-03-11T04:38:59;98303.63;;;12.14;100.00
12781;BME280;6454;43.304;24.344;2023-03-11T04:41:26;98305.09;;;12.11;100.00
12781;BME280;6454;43.304;24.344;2023-03-11T04:43:55;98301.91;;;12.09;100.00
12781;BME280;6454;43.304;24.344;2023-03-11T04:46:22;98295.56;;;12.17;100.00
12781;BME280;6454;43.304;24.344;2023-03-11T04:48:49;98307.22;;;12.18;100.00
12781;BME280;6454;43.304;24.344;2023-03-11T04:51:16;98311.66;;;12.10;100.00
12781;BME280;6454;43.304;24.344;2023-03-11T04:53:43;98320.03;;;12.05;100.00
12781;BME280;6454;43.304;24.344;2023-03-11T04:56:10;98323.88;;;12.04;100.00
12781;BME280;6454;43.304;24.344;2023-03-11T04:58:37;98332.38;;;12.15;100.00
12781;BME280;6454;43.304;24.344;2023-03-11T05:01:05;98344.38;;;12.14;100.00
12781;BME280;6454;43.304;24.344;2023-03-11T05:03:32;98347.06;;;12.02;100.00
12781;BME280;6454;43.304;24.344;2023-03-11T05:05:59;98350.50;;;11.99;100.00
12781;BME280;6454;43.304;24.344;2023-03-11T05:08:26;98350.28;;;12.04;100.00
12781;BME280;6454;43.304;24.344;2023-03-11T05:10:53;98353.22;;;12.11;100.00
12781;BME280;6454;43.304;24.344;2023-03-11T05:13:20;98357.50;;;12.00;100.00
12781;BME280;6454;43.304;24.344;2023-03-11T05:15:47;98359.53;;;11.91;100.00
12781;BME280;6454;43.304;24.344;2023-03-11T05:18:16;98366.22;;;11.93;100.00
12781;BME280;6454;43.304;24.344;2023-03-11T05:20:44;98371.53;;;11.90;100.00
12781;BME280;6454;43.304;24.344;2023-03-11T05:23:10;98376.28;;;11.93;100.00
12781;BME280;6454;43.304;24.344;2023-03-11T05:25:38;98364.53;;;12.01;99.88
12781;BME280;6454;43.304;24.344;2023-03-11T05:28:05;98374.72;;;12.04;99.58
12781;BME280;6454;43.304;24.344;2023-03-11T05:30:31;98366.00;;;12.10;99.14
12781;BME280;6454;43.304;24.344;2023-03-11T05:32:58;98359.09;;;12.13;99.50
12781;BME280;6454;43.304;24.344;2023-03-11T05:35:27;98360.00;;;12.17;99.02
12781;BME280;6454;43.304;24.344;2023-03-11T05:37:54;98367.69;;;12.15;99.41
12781;BME280;6454;43.304;24.344;2023-03-11T05:40:21;98370.31;;;12.23;99.85
12781;BME280;6454;43.304;24.344;2023-03-11T05:42:48;98373.56;;;12.29;99.45
12781;BME280;6454;43.304;24.344;2023-03-11T05:45:16;98370.97;;;12.33;99.60
12781;BME280;6454;43.304;24.344;2023-03-11T05:47:43;98370.53;;;12.31;99.82
12781;BME280;6454;43.304;24.344;2023-03-11T05:50:10;98381.63;;;12.38;98.98
12781;BME280;6454;43.304;24.344;2023-03-11T05:52:39;98380.59;;;12.30;99.77
12781;BME280;6454;43.304;24.344;2023-03-11T05:55:07;98386.03;;;12.30;99.72
12781;BME280;6454;43.304;24.344;2023-03-11T05:57:36;98381.94;;;12.24;99.89
12781;BME280;6454;43.304;24.344;2023-03-11T06:00:05;98383.78;;;12.32;99.15
12781;BME280;6454;43.304;24.344;2023-03-11T06:02:36;98381.84;;;12.33;98.81
12781;BME280;6454;43.304;24.344;2023-03-11T06:05:04;98393.63;;;12.24;99.18
12781;BME280;6454;43.304;24.344;2023-03-11T06:07:33;98395.00;;;12.18;100.00
12781;BME280;6454;43.304;24.344;2023-03-11T06:10:05;98385.59;;;12.16;100.00
12781;BME280;6454;43.304;24.344;2023-03-11T06:12:35;98394.56;;;12.16;100.00
12781;BME280;6454;43.304;24.344;2023-03-11T06:15:04;98401.09;;;12.15;100.00
12781;BME280;6454;43.304;24.344;2023-03-11T06:17:31;98398.25;;;12.12;100.00
12781;BME280;6454;43.304;24.344;2023-03-11T06:19:58;98400.22;;;12.11;100.00
12781;BME280;6454;43.304;24.344;2023-03-11T06:22:25;98404.63;;;12.16;100.00
12781;BME280;6454;43.304;24.344;2023-03-11T06:24:52;98402.56;;;12.13;100.00
12781;BME280;6454;43.304;24.344;2023-03-11T06:27:20;98411.19;;;12.15;100.00
12781;BME280;6454;43.304;24.344;2023-03-11T06:29:51;98399.41;;;12.23;100.00
12781;BME280;6454;43.304;24.344;2023-03-11T06:32:18;98402.34;;;12.30;100.00
12781;BME280;6454;43.304;24.344;2023-03-11T06:34:49;98397.94;;;12.38;100.00
12781;BME280;6454;43.304;24.344;2023-03-11T06:37:16;98403.16;;;12.43;100.00
12781;BME280;6454;43.304;24.344;2023-03-11T06:39:43;98405.28;;;12.49;100.00
12781;BME280;6454;43.304;24.344;2023-03-11T06:42:10;98402.34;;;12.54;100.00
12781;BME280;6454;43.304;24.344;2023-03-11T06:44:39;98399.63;;;12.66;99.79
12781;BME280;6454;43.304;24.344;2023-03-11T06:47:06;98396.56;;;12.68;100.00
12781;BME280;6454;43.304;24.344;2023-03-11T06:49:33;98404.38;;;12.69;100.00
12781;BME280;6454;43.304;24.344;2023-03-11T06:52:01;98411.50;;;12.74;100.00
12781;BME280;6454;43.304;24.344;2023-03-11T06:54:28;98406.63;;;12.67;100.00
12781;BME280;6454;43.304;24.344;2023-03-11T06:56:55;98397.47;;;12.60;100.00
12781;BME280;6454;43.304;24.344;2023-03-11T06:59:22;98402.81;;;12.56;100.00
12781;BME280;6454;43.304;24.344;2023-03-11T07:01:50;98405.31;;;12.61;100.00
12781;BME280;6454;43.304;24.344;2023-03-11T07:04:17;98403.03;;;12.63;100.00
12781;BME280;6454;43.304;24.344;2023-03-11T07:06:44;98396.44;;;12.64;100.00
12781;BME280;6454;43.304;24.344;2023-03-11T07:09:11;98367.69;;;12.39;100.00
12781;BME280;6454;43.304;24.344;2023-03-11T07:11:38;98395.75;;;12.67;100.00
12781;BME280;6454;43.304;24.344;2023-03-11T07:14:05;98388.47;;;12.71;98.92
12781;BME280;6454;43.304;24.344;2023-03-11T07:16:32;98385.28;;;12.81;98.70
12781;BME280;6454;43.304;24.344;2023-03-11T07:19:01;98384.13;;;12.94;97.68
12781;BME280;6454;43.304;24.344;2023-03-11T07:21:29;98384.31;;;13.14;97.08
12781;BME280;6454;43.304;24.344;2023-03-11T07:23:57;98363.66;;;13.25;96.06
12781;BME280;6454;43.304;24.344;2023-03-11T07:26:24;98363.78;;;13.44;93.20
12781;BME280;6454;43.304;24.344;2023-03-11T07:28:52;98359.88;;;13.57;89.37
12781;BME280;6454;43.304;24.344;2023-03-11T07:31:21;98365.84;;;13.63;86.43
12781;BME280;6454;43.304;24.344;2023-03-11T07:33:49;98309.94;;;13.37;85.02
12781;BME280;6454;43.304;24.344;2023-03-11T07:36:19;98360.44;;;13.78;82.58
12781;BME280;6454;43.304;24.344;2023-03-11T07:38:47;98354.72;;;13.83;83.17
12781;BME280;6454;43.304;24.344;2023-03-11T07:41:14;98347.16;;;13.92;81.78
12781;BME280;6454;43.304;24.344;2023-03-11T07:43:42;98350.41;;;13.98;81.96
12781;BME280;6454;43.304;24.344;2023-03-11T07:46:10;98344.59;;;13.99;81.35
12781;BME280;6454;43.304;24.344;2023-03-11T07:48:41;98345.38;;;14.15;78.93
12781;BME280;6454;43.304;24.344;2023-03-11T07:51:11;98337.03;;;14.40;76.54
12781;BME280;6454;43.304;24.344;2023-03-11T07:53:40;98341.00;;;14.61;77.64
12781;BME280;6454;43.304;24.344;2023-03-11T07:56:09;98331.66;;;14.78;74.44
12781;BME280;6454;43.304;24.344;2023-03-11T07:58:37;98334.94;;;14.87;74.16
12781;BME280;6454;43.304;24.344;2023-03-11T08:01:04;98336.41;;;15.00;74.17
12781;BME280;6454;43.304;24.344;2023-03-11T08:03:32;98319.22;;;15.00;73.63
12781;BME280;6454;43.304;24.344;2023-03-11T08:05:59;98314.25;;;15.05;73.78
12781;BME280;6454;43.304;24.344;2023-03-11T08:08:26;98300.63;;;15.05;71.06
12781;BME280;6454;43.304;24.344;2023-03-11T08:10:54;98315.03;;;15.25;72.55
12781;BME280;6454;43.304;24.344;2023-03-11T08:13:21;98305.97;;;15.21;71.68
12781;BME280;6454;43.304;24.344;2023-03-11T08:15:48;98312.38;;;15.09;72.87
12781;BME280;6454;43.304;24.344;2023-03-11T08:18:15;98295.88;;;15.02;71.78
12781;BME280;6454;43.304;24.344;2023-03-11T08:20:42;98299.16;;;15.11;71.27
12781;BME280;6454;43.304;24.344;2023-03-11T08:23:10;98299.91;;;15.31;72.78
12781;BME280;6454;43.304;24.344;2023-03-11T08:25:38;98290.56;;;15.51;72.64
12781;BME280;6454;43.304;24.344;2023-03-11T08:28:07;98288.88;;;15.66;70.08
12781;BME280;6454;43.304;24.344;2023-03-11T08:30:34;98295.19;;;15.70;70.03
12781;BME280;6454;43.304;24.344;2023-03-11T08:33:02;98281.72;;;15.80;68.62
12781;BME280;6454;43.304;24.344;2023-03-11T08:35:29;98255.66;;;15.64;71.47
12781;BME280;6454;43.304;24.344;2023-03-11T08:37:56;98279.31;;;15.79;71.53
12781;BME280;6454;43.304;24.344;2023-03-11T08:40:23;98279.75;;;15.81;69.84
12781;BME280;6454;43.304;24.344;2023-03-11T08:42:50;98281.66;;;15.77;69.00
12781;BME280;6454;43.304;24.344;2023-03-11T08:45:19;98285.06;;;15.70;67.93
12781;BME280;6454;43.304;24.344;2023-03-11T08:47:45;98275.16;;;15.62;68.14
12781;BME280;6454;43.304;24.344;2023-03-11T08:50:15;98245.00;;;15.36;68.99
12781;BME280;6454;43.304;24.344;2023-03-11T08:52:43;98273.22;;;15.43;69.35
12781;BME280;6454;43.304;24.344;2023-03-11T08:55:11;98264.84;;;15.52;70.47
12781;BME280;6454;43.304;24.344;2023-03-11T08:57:39;98266.34;;;15.50;70.31
12781;BME280;6454;43.304;24.344;2023-03-11T09:00:08;98256.81;;;15.63;69.93
12781;BME280;6454;43.304;24.344;2023-03-11T09:02:37;98250.47;;;15.81;69.69
12781;BME280;6454;43.304;24.344;2023-03-11T09:05:06;98252.22;;;15.93;69.66
12781;BME280;6454;43.304;24.344;2023-03-11T09:07:33;98254.53;;;16.17;65.77
12781;BME280;6454;43.304;24.344;2023-03-11T09:10:00;98259.09;;;16.36;61.24
12781;BME280;6454;43.304;24.344;2023-03-11T09:12:27;98244.03;;;16.49;62.36
12781;BME280;6454;43.304;24.344;2023-03-11T09:14:58;98246.63;;;16.64;62.54
12781;BME280;6454;43.304;24.344;2023-03-11T09:17:25;98249.84;;;16.73;60.71
12781;BME280;6454;43.304;24.344;2023-03-11T09:19:56;98222.66;;;16.58;58.82
12781;BME280;6454;43.304;24.344;2023-03-11T09:22:23;98236.38;;;16.91;59.76
12781;BME280;6454;43.304;24.344;2023-03-11T09:24:50;98236.50;;;17.02;61.92
12781;BME280;6454;43.304;24.344;2023-03-11T09:27:20;98245.59;;;17.13;60.92
12781;BME280;6454;43.304;24.344;2023-03-11T09:29:47;98221.28;;;17.08;58.46
12781;BME280;6454;43.304;24.344;2023-03-11T09:32:20;98244.94;;;17.23;59.19
12781;BME280;6454;43.304;24.344;2023-03-11T09:34:47;98242.28;;;17.30;60.55
12781;BME280;6454;43.304;24.344;2023-03-11T09:37:15;98213.56;;;17.17;59.35
12781;BME280;6454;43.304;24.344;2023-03-11T09:39:42;98119.22;;;16.41;58.30
12781;BME280;6454;43.304;24.344;2023-03-11T09:42:19;98189.69;;;16.81;58.85
12781;BME280;6454;43.304;24.344;2023-03-11T09:44:53;98175.81;;;16.63;59.25
12781;BME280;6454;43.304;24.344;2023-03-11T09:47:36;98236.50;;;17.05;60.25
12781;BME280;6454;43.304;24.344;2023-03-11T09:50:18;98219.91;;;17.28;58.37
12781;BME280;6454;43.304;24.344;2023-03-11T09:55:43;98226.94;;;17.66;56.58
12781;BME280;6454;43.304;24.344;2023-03-11T09:58:33;98236.06;;;17.77;56.20
12781;BME280;6454;43.304;24.344;2023-03-11T10:01:02;98235.31;;;17.83;56.29
12781;BME280;6454;43.304;24.344;2023-03-11T10:03:38;98232.31;;;18.02;54.50
12781;BME280;6454;43.304;24.344;2023-03-11T10:06:13;98229.97;;;18.01;54.09
12781;BME280;6454;43.304;24.344;2023-03-11T10:08:48;98234.94;;;17.85;54.83
12781;BME280;6454;43.304;24.344;2023-03-11T10:11:46;98232.28;;;17.52;54.52
12781;BME280;6454;43.304;24.344;2023-03-11T10:14:40;98234.72;;;17.60;56.41
12781;BME280;6454;43.304;24.344;2023-03-11T10:17:33;98236.59;;;17.49;54.58
12781;BME280;6454;43.304;24.344;2023-03-11T10:20:04;98243.72;;;17.20;54.26
12781;BME280;6454;43.304;24.344;2023-03-11T10:22:41;98241.22;;;17.05;56.22
12781;BME280;6454;43.304;24.344;2023-03-11T10:25:16;98249.31;;;16.94;55.72
12781;BME280;6454;43.304;24.344;2023-03-11T10:27:47;98233.97;;;16.86;56.52
12781;BME280;6454;43.304;24.344;2023-03-11T10:30:23;98196.84;;;16.55;56.07
12781;BME280;6454;43.304;24.344;2023-03-11T10:32:55;98242.50;;;16.78;56.19
12781;BME280;6454;43.304;24.344;2023-03-11T10:35:29;98242.03;;;16.72;56.61
12781;BME280;6454;43.304;24.344;2023-03-11T10:38:02;98183.44;;;16.50;57.32
12781;BME280;6454;43.304;24.344;2023-03-11T10:40:36;98229.22;;;17.16;55.21
12781;BME280;6454;43.304;24.344;2023-03-11T10:43:11;98250.53;;;17.33;56.57
12781;BME280;6454;43.304;24.344;2023-03-11T10:45:41;98242.09;;;17.53;57.93
12781;BME280;6454;43.304;24.344;2023-03-11T10:48:10;98232.81;;;17.64;58.31
12781;BME280;6454;43.304;24.344;2023-03-11T10:50:45;98238.41;;;17.78;57.10
12781;BME280;6454;43.304;24.344;2023-03-11T10:53:15;98225.41;;;17.68;56.28
12781;BME280;6454;43.304;24.344;2023-03-11T10:55:47;98221.56;;;17.76;56.69
12781;BME280;6454;43.304;24.344;2023-03-11T10:58:22;98232.19;;;17.85;56.48
12781;BME280;6454;43.304;24.344;2023-03-11T11:01:00;98226.75;;;17.88;55.57
12781;BME280;6454;43.304;24.344;2023-03-11T11:03:27;98244.59;;;17.68;56.25
12781;BME280;6454;43.304;24.344;2023-03-11T11:06:00;98219.53;;;17.66;55.92
12781;BME280;6454;43.304;24.344;2023-03-11T11:08:27;98234.88;;;17.78;55.51
12781;BME280;6454;43.304;24.344;2023-03-11T11:10:57;98225.91;;;17.77;55.45
12781;BME280;6454;43.304;24.344;2023-03-11T11:13:25;98195.59;;;17.60;56.51
12781;BME280;6454;43.304;24.344;2023-03-11T11:15:57;98135.13;;;17.42;56.11
12781;BME280;6454;43.304;24.344;2023-03-11T11:18:27;98197.53;;;18.14;57.58
12781;BME280;6454;43.304;24.344;2023-03-11T11:20:58;98209.72;;;18.20;55.03
12781;BME280;6454;43.304;24.344;2023-03-11T11:23:31;98207.34;;;18.15;55.61
12781;BME280;6454;43.304;24.344;2023-03-11T11:26:01;98214.06;;;18.28;56.48
12781;BME280;6454;43.304;24.344;2023-03-11T11:28:29;98210.59;;;18.38;54.03
12781;BME280;6454;43.304;24.344;2023-03-11T11:30:58;98206.22;;;18.30;54.26
12781;BME280;6454;43.304;24.344;2023-03-11T11:33:27;98184.22;;;18.23;53.65
12781;BME280;6454;43.304;24.344;2023-03-11T11:35:56;98203.75;;;18.11;54.65
12781;BME280;6454;43.304;24.344;2023-03-11T11:38:26;98196.75;;;18.17;55.52
12781;BME280;6454;43.304;24.344;2023-03-11T11:40:56;98186.66;;;18.38;56.02
12781;BME280;6454;43.304;24.344;2023-03-11T11:43:35;98188.63;;;18.34;53.80
12781;BME280;6454;43.304;24.344;2023-03-11T11:46:11;98148.88;;;18.11;54.41
12781;BME280;6454;43.304;24.344;2023-03-11T11:48:48;98185.91;;;18.41;55.82
12781;BME280;6454;43.304;24.344;2023-03-11T11:51:19;98171.44;;;18.48;56.55
12781;BME280;6454;43.304;24.344;2023-03-11T11:53:51;98178.06;;;18.43;55.01
12781;BME280;6454;43.304;24.344;2023-03-11T11:56:23;98175.78;;;18.56;55.35
12781;BME280;6454;43.304;24.344;2023-03-11T11:58:52;98175.00;;;18.52;54.81
12781;BME280;6454;43.304;24.344;2023-03-11T12:01:25;98178.91;;;18.51;55.44
12781;BME280;6454;43.304;24.344;2023-03-11T12:07:24;98174.47;;;18.32;56.25
12781;BME280;6454;43.304;24.344;2023-03-11T12:10:01;98177.94;;;18.19;55.37
12781;BME280;6454;43.304;24.344;2023-03-11T12:12:39;98176.44;;;18.25;58.12
12781;BME280;6454;43.304;24.344;2023-03-11T12:15:13;98167.78;;;18.26;57.10
12781;BME280;6454;43.304;24.344;2023-03-11T12:17:46;98171.72;;;18.32;57.23
12781;BME280;6454;43.304;24.344;2023-03-11T12:20:20;98174.09;;;18.34;56.00
12781;BME280;6454;43.304;24.344;2023-03-11T12:23:13;98162.63;;;18.11;55.54
12781;BME280;6454;43.304;24.344;2023-03-11T12:25:47;98178.28;;;18.07;57.30
12781;BME280;6454;43.304;24.344;2023-03-11T12:28:21;98186.97;;;18.19;57.24
12781;BME280;6454;43.304;24.344;2023-03-11T12:30:55;98180.72;;;18.26;56.99
12781;BME280;6454;43.304;24.344;2023-03-11T12:33:28;98179.84;;;18.04;55.31
12781;BME280;6454;43.304;24.344;2023-03-11T12:35:58;98167.66;;;18.05;56.08
12781;BME280;6454;43.304;24.344;2023-03-11T12:38:29;98182.28;;;18.23;57.59
12781;BME280;6454;43.304;24.344;2023-03-11T12:41:00;98192.06;;;18.21;54.68
12781;BME280;6454;43.304;24.344;2023-03-11T12:49:39;98209.94;;;17.93;54.53
12781;BME280;6454;43.304;24.344;2023-03-11T12:52:24;98204.41;;;17.86;54.36
12781;BME280;6454;43.304;24.344;2023-03-11T12:55:33;98213.03;;;17.88;53.86
12781;BME280;6454;43.304;24.344;2023-03-11T13:07:40;98236.31;;;17.21;57.44
12781;BME280;6454;43.304;24.344;2023-03-11T13:10:32;98233.38;;;17.03;56.90
12781;BME280;6454;43.304;24.344;2023-03-11T13:13:01;98233.41;;;17.07;56.65
12781;BME280;6454;43.304;24.344;2023-03-11T13:15:32;98239.75;;;17.14;56.77
12781;BME280;6454;43.304;24.344;2023-03-11T13:18:02;98231.53;;;17.14;57.00
12781;BME280;6454;43.304;24.344;2023-03-11T13:20:48;98238.34;;;17.27;56.29
12781;BME280;6454;43.304;24.344;2023-03-11T13:23:24;98246.50;;;17.24;56.29
12781;BME280;6454;43.304;24.344;2023-03-11T13:26:35;98251.59;;;17.25;57.73
12781;BME280;6454;43.304;24.344;2023-03-11T13:32:16;98219.28;;;17.01;57.17
12781;BME280;6454;43.304;24.344;2023-03-11T13:34:56;98256.22;;;17.18;58.98